Time;durP1;ratioP1;P1;durP2;ratioP2;P2;SDS_P1;SDS_P2;PMS_P1;PMS_P2;Temp;Humidity;BMP_temperature;BMP_pressure;BME280_temperature;BME280_humidity;BME280_pressure;Samples;Min_cycle;Max_cycle;Signal;HPM_P1;HPM_P2
2020/12/01 00:00:08;;;;;;;2.73;1.90;;;6.70;99.90;;;;;;5050693;28;20180;-75
2020/12/01 00:02:35;;;;;;;2.08;1.52;;;6.70;99.90;;;;;;5050711;28;20618;-75
2020/12/01 00:05:02;;;;;;;2.27;1.73;;;6.70;99.90;;;;;;5050283;28;20182;-75
2020/12/01 00:07:27;;;;;;;2.88;2.30;;;6.70;99.90;;;;;;5032641;28;21120;-75
2020/12/01 00:09:53;;;;;;;1.95;1.55;;;6.70;99.90;;;;;;5032825;28;20205;-75
2020/12/01 00:12:19;;;;;;;3.13;1.90;;;6.70;99.90;;;;;;5050428;28;20179;-75
2020/12/01 00:14:45;;;;;;;1.87;1.20;;;6.70;99.90;;;;;;5032882;28;20185;-75
2020/12/01 00:17:11;;;;;;;2.30;1.83;;;6.70;99.90;;;;;;5050614;28;20692;-75
2020/12/01 00:19:36;;;;;;;1.70;1.20;;;6.80;99.90;;;;;;5037635;28;20283;-75
2020/12/01 00:22:02;;;;;;;2.37;1.50;;;6.80;99.90;;;;;;5050403;28;20554;-75
2020/12/01 00:24:28;;;;;;;2.03;1.60;;;6.80;99.90;;;;;;5032723;28;20650;-75
2020/12/01 00:26:54;;;;;;;2.90;2.03;;;6.90;99.90;;;;;;5032554;28;20983;-75
2020/12/01 00:29:20;;;;;;;2.10;1.93;;;6.90;99.90;;;;;;5050069;28;20172;-75
2020/12/01 00:31:45;;;;;;;2.87;2.20;;;6.90;99.90;;;;;;5050201;28;20284;-75
2020/12/01 00:34:12;;;;;;;3.27;1.63;;;6.90;99.90;;;;;;5050067;28;21156;-75
2020/12/01 00:36:40;;;;;;;3.55;1.85;;;6.80;99.90;;;;;;5032573;28;20243;-74
2020/12/01 00:39:08;;;;;;;2.30;1.52;;;6.80;99.90;;;;;;5032352;28;20219;-75
2020/12/01 00:41:34;;;;;;;2.15;1.50;;;6.80;99.90;;;;;;5032762;28;20173;-75
2020/12/01 00:44:00;;;;;;;2.20;1.70;;;6.70;99.90;;;;;;5050512;28;20188;-74
2020/12/01 00:46:28;;;;;;;2.30;1.67;;;6.70;99.90;;;;;;5032833;28;20627;-74
2020/12/01 00:48:54;;;;;;;2.88;1.90;;;6.70;99.90;;;;;;5032141;28;20208;-74
2020/12/01 00:51:20;;;;;;;2.35;1.40;;;6.60;99.90;;;;;;5015725;28;20197;-74
2020/12/01 00:53:46;;;;;;;1.83;1.25;;;6.60;99.90;;;;;;5015638;28;20188;-74
2020/12/01 00:56:19;;;;;;;1.70;1.20;;;6.60;99.90;;;;;;5020486;28;20169;-74
2020/12/01 00:58:45;;;;;;;1.65;1.35;;;6.70;99.90;;;;;;5032068;28;20176;-74
2020/12/01 01:01:22;;;;;;;2.75;1.58;;;6.70;99.90;;;;;;5017221;28;20172;-74
2020/12/01 01:03:48;;;;;;;2.10;1.58;;;6.70;99.90;;;;;;5031961;28;20197;-74
2020/12/01 01:06:14;;;;;;;1.93;1.57;;;6.70;99.90;;;;;;5050009;28;20165;-74
2020/12/01 01:08:40;;;;;;;2.42;1.65;;;6.80;99.90;;;;;;5049656;28;20568;-74
2020/12/01 01:11:07;;;;;;;2.30;1.73;;;6.70;99.90;;;;;;5049827;28;20619;-74
2020/12/01 01:13:34;;;;;;;3.15;2.50;;;6.70;99.90;;;;;;5049862;28;20185;-74
2020/12/01 01:16:01;;;;;;;3.00;1.77;;;6.70;99.90;;;;;;5015773;28;20169;-74
2020/12/01 01:18:27;;;;;;;2.00;1.80;;;6.70;99.90;;;;;;5035416;28;20188;-74
2020/12/01 01:20:53;;;;;;;2.20;1.80;;;6.70;99.90;;;;;;5053537;28;20199;-75
2020/12/01 01:23:19;;;;;;;2.20;1.83;;;6.80;99.90;;;;;;5053537;28;20599;-74
2020/12/01 01:25:45;;;;;;;3.60;1.63;;;6.80;99.90;;;;;;5053626;28;20571;-75
2020/12/01 01:28:11;;;;;;;2.28;2.08;;;6.80;99.90;;;;;;5053358;28;20620;-75
2020/12/01 01:30:39;;;;;;;2.78;1.92;;;6.80;99.90;;;;;;5053482;28;20193;-75
2020/12/01 01:33:06;;;;;;;2.25;1.65;;;6.80;99.90;;;;;;5038505;28;20260;-75
2020/12/01 01:35:34;;;;;;;2.10;1.90;;;6.80;99.90;;;;;;5054079;28;20180;-75
2020/12/01 01:38:01;;;;;;;2.70;2.50;;;6.80;99.90;;;;;;5053007;28;20165;-74
2020/12/01 01:40:29;;;;;;;3.30;3.03;;;6.80;99.90;;;;;;5053131;28;20252;-75
2020/12/01 01:42:56;;;;;;;4.35;3.97;;;6.80;99.90;;;;;;5053202;28;20169;-74
2020/12/01 01:45:38;;;;;;;5.10;3.95;;;6.80;99.90;;;;;;5035373;28;20705;-74
2020/12/01 01:48:14;;;;;;;4.90;4.20;;;6.80;99.90;;;;;;5052937;28;20192;-74
2020/12/01 01:50:40;;;;;;;4.65;4.10;;;6.80;99.90;;;;;;5035228;28;20196;-74
2020/12/01 01:53:06;;;;;;;5.78;4.30;;;6.80;99.90;;;;;;5035376;28;20169;-74
2020/12/01 01:55:32;;;;;;;7.10;5.60;;;6.80;99.90;;;;;;5052880;28;20172;-74
2020/12/01 01:58:02;;;;;;;7.20;5.13;;;6.80;99.90;;;;;;5052753;28;20669;-74
2020/12/01 02:00:59;;;;;;;6.55;4.63;;;6.70;99.90;;;;;;5052936;28;20311;-74
2020/12/01 02:03:52;;;;;;;5.07;4.00;;;6.80;99.90;;;;;;5053054;28;20539;-74
2020/12/01 02:06:36;;;;;;;4.63;3.83;;;6.80;99.90;;;;;;5035189;28;20638;-74
2020/12/01 02:09:36;;;;;;;3.72;3.42;;;6.80;99.90;;;;;;5052574;28;20543;-74
2020/12/01 02:12:05;;;;;;;4.90;4.03;;;6.80;99.90;;;;;;5035393;28;20189;-74
2020/12/01 02:14:36;;;;;;;4.20;3.80;;;6.80;99.90;;;;;;5052404;28;20196;-74
2020/12/01 02:17:17;;;;;;;5.00;4.00;;;6.90;99.90;;;;;;5052626;28;20164;-74
2020/12/01 02:19:44;;;;;;;4.72;3.85;;;6.90;99.90;;;;;;5034793;28;20592;-74
2020/12/01 02:22:14;;;;;;;4.10;3.00;;;6.80;99.90;;;;;;5052238;28;20169;-74
2020/12/01 02:24:40;;;;;;;3.90;3.20;;;6.90;99.90;;;;;;5034603;28;20626;-74
2020/12/01 02:27:06;;;;;;;4.50;3.65;;;6.90;99.90;;;;;;5052273;28;20569;-74
2020/12/01 02:29:35;;;;;;;4.20;2.90;;;6.90;99.90;;;;;;5051933;28;20172;-74
2020/12/01 02:32:03;;;;;;;2.92;2.10;;;6.90;99.90;;;;;;5052132;28;20173;-74
2020/12/01 02:34:38;;;;;;;3.70;2.60;;;6.90;99.90;;;;;;5052036;28;20585;-74
2020/12/01 02:37:04;;;;;;;4.03;3.22;;;7.00;99.90;;;;;;5052878;28;20187;-74
2020/12/01 02:39:30;;;;;;;3.65;2.67;;;7.00;99.90;;;;;;5034029;28;20570;-74
2020/12/01 02:41:58;;;;;;;3.00;2.70;;;7.00;99.90;;;;;;5052254;28;20161;-74
2020/12/01 02:44:25;;;;;;;2.45;2.13;;;7.10;99.90;;;;;;5051879;28;20231;-74
2020/12/01 02:46:52;;;;;;;3.58;2.63;;;7.20;99.90;;;;;;5051913;28;20169;-74
2020/12/01 02:49:20;;;;;;;3.38;2.67;;;7.20;99.90;;;;;;5038165;28;20196;-74
2020/12/01 02:51:46;;;;;;;3.05;2.75;;;7.30;99.90;;;;;;5034073;28;20200;-74
2020/12/01 02:54:12;;;;;;;2.65;2.20;;;7.40;99.90;;;;;;5033862;28;20201;-74
2020/12/01 02:56:38;;;;;;;3.07;2.37;;;7.50;99.90;;;;;;5033893;28;20169;-74
2020/12/01 02:59:03;;;;;;;4.10;3.40;;;7.60;99.90;;;;;;5033837;28;20172;-74
2020/12/01 03:01:29;;;;;;;3.93;2.77;;;7.60;99.90;;;;;;5051591;28;20616;-74
2020/12/01 03:03:55;;;;;;;3.90;3.50;;;7.70;99.90;;;;;;5051635;28;20200;-75
2020/12/01 03:06:21;;;;;;;3.23;2.93;;;7.70;99.90;;;;;;5033950;28;20598;-74
2020/12/01 03:08:48;;;;;;;4.35;3.95;;;7.80;99.90;;;;;;5033635;28;20169;-75
2020/12/01 03:11:15;;;;;;;5.38;3.90;;;7.90;99.90;;;;;;5033650;28;20588;-74
2020/12/01 03:13:41;;;;;;;5.15;3.65;;;7.90;99.90;;;;;;5033668;28;20260;-74
2020/12/01 03:16:10;;;;;;;5.60;4.10;;;8.00;99.90;;;;;;5051520;28;20244;-75
2020/12/01 03:18:37;;;;;;;5.18;4.50;;;8.10;99.90;;;;;;5033586;28;20945;-74
2020/12/01 03:21:05;;;;;;;8.27;5.75;;;8.10;99.90;;;;;;5051655;28;20157;-75
2020/12/01 03:23:31;;;;;;;6.22;5.63;;;8.10;99.90;;;;;;5051690;28;20200;-75
2020/12/01 03:25:58;;;;;;;6.20;4.63;;;8.10;99.90;;;;;;5038880;28;20169;-74
2020/12/01 03:28:25;;;;;;;5.85;4.88;;;8.20;99.90;;;;;;5051275;28;20172;-74
2020/12/01 03:30:50;;;;;;;6.85;5.57;;;8.30;99.90;;;;;;5051081;28;20196;-75
2020/12/01 03:33:17;;;;;;;5.20;4.70;;;8.30;99.90;;;;;;5050889;28;20227;-74
2020/12/01 03:35:43;;;;;;;5.78;5.22;;;8.30;99.90;;;;;;5033371;28;20575;-74
2020/12/01 03:38:09;;;;;;;6.90;6.13;;;8.30;99.90;;;;;;5050900;28;20176;-74
2020/12/01 03:40:35;;;;;;;6.60;6.00;;;8.30;99.90;;;;;;5032415;28;20264;-74
2020/12/01 03:43:00;;;;;;;6.90;6.20;;;8.40;99.90;;;;;;5033315;28;20285;-74
2020/12/01 03:45:26;;;;;;;8.53;7.37;;;8.40;99.90;;;;;;5050775;28;20181;-74
2020/12/01 03:47:54;;;;;;;6.63;5.87;;;8.50;99.90;;;;;;5050722;28;20165;-74
2020/12/01 03:50:21;;;;;;;6.63;5.70;;;8.50;99.90;;;;;;5032857;28;20612;-74
2020/12/01 03:52:48;;;;;;;7.13;5.45;;;8.50;99.90;;;;;;5050948;28;20164;-75
2020/12/01 03:55:13;;;;;;;5.13;4.22;;;8.40;99.90;;;;;;5050687;28;20188;-74
2020/12/01 03:57:42;;;;;;;5.47;4.97;;;8.40;99.90;;;;;;5032814;28;20528;-75
2020/12/01 04:00:12;;;;;;;5.18;4.40;;;8.30;99.90;;;;;;5032817;28;20165;-75
2020/12/01 04:02:38;;;;;;;3.85;3.25;;;8.30;99.90;;;;;;5055399;28;20161;-75
2020/12/01 04:05:05;;;;;;;5.80;4.97;;;8.20;99.90;;;;;;5032789;28;20193;-74
2020/12/01 04:07:31;;;;;;;4.65;4.25;;;8.10;99.90;;;;;;5050374;28;20208;-74
2020/12/01 04:09:57;;;;;;;4.38;4.00;;;8.10;99.90;;;;;;5032690;28;20208;-74
2020/12/01 04:12:27;;;;;;;5.53;4.93;;;8.10;99.90;;;;;;5050437;28;20656;-74
2020/12/01 04:14:54;;;;;;;5.65;4.80;;;8.10;99.90;;;;;;5050346;28;20191;-74
2020/12/01 04:17:20;;;;;;;6.38;4.80;;;8.10;99.90;;;;;;5050268;28;20176;-74
2020/12/01 04:19:46;;;;;;;4.37;3.97;;;8.20;99.90;;;;;;5032606;28;20524;-74
2020/12/01 04:22:12;;;;;;;4.60;4.20;;;8.20;99.90;;;;;;5050339;28;20244;-74
2020/12/01 04:24:39;;;;;;;5.82;5.22;;;8.30;99.90;;;;;;5050238;28;20643;-74
2020/12/01 04:27:05;;;;;;;6.13;5.13;;;8.30;99.90;;;;;;5050515;28;20160;-75
2020/12/01 04:29:32;;;;;;;5.47;4.80;;;8.40;99.90;;;;;;5032232;28;20165;-74
2020/12/01 04:31:58;;;;;;;6.60;5.75;;;8.40;99.90;;;;;;5050074;28;20173;-75
2020/12/01 04:34:24;;;;;;;6.57;5.70;;;8.40;99.90;;;;;;5032207;28;20205;-74
2020/12/01 04:36:50;;;;;;;6.17;4.90;;;8.50;99.90;;;;;;5050362;28;20169;-75
2020/12/01 04:39:15;;;;;;;6.88;6.18;;;8.50;99.90;;;;;;5033032;28;20167;-75
2020/12/01 04:41:41;;;;;;;6.37;5.67;;;8.40;99.90;;;;;;5052550;28;20635;-75
2020/12/01 04:44:31;;;;;;;5.43;4.93;;;8.40;99.90;;;;;;4999575;28;20288;-75
2020/12/01 04:47:04;;;;;;;4.80;4.40;;;8.50;99.90;;;;;;5049898;28;21025;-75
2020/12/01 04:49:37;;;;;;;6.05;4.93;;;8.50;99.90;;;;;;5049833;28;20200;-75
2020/12/01 04:52:42;;;;;;;5.57;5.07;;;8.50;99.90;;;;;;5053089;28;20646;-75
2020/12/01 04:55:29;;;;;;;4.93;4.45;;;8.60;99.90;;;;;;5036111;28;20196;-76
2020/12/01 04:58:19;;;;;;;5.80;4.60;;;8.60;99.90;;;;;;5035936;28;20176;-75
2020/12/01 05:00:54;;;;;;;5.22;4.63;;;8.60;99.90;;;;;;5035830;28;20169;-75
2020/12/01 05:03:25;;;;;;;5.68;5.00;;;8.70;99.90;;;;;;5053974;28;20539;-75
2020/12/01 05:06:04;;;;;;;6.60;5.97;;;8.70;99.90;;;;;;5053751;28;20512;-74
2020/12/01 05:08:48;;;;;;;5.35;4.90;;;8.70;99.90;;;;;;5041106;28;20846;-75
2020/12/01 05:11:58;;;;;;;6.88;6.00;;;8.70;99.90;;;;;;5053682;28;20228;-75
2020/12/01 05:14:36;;;;;;;7.60;5.95;;;8.70;99.90;;;;;;5035842;28;20555;-73
2020/12/01 05:17:32;;;;;;;6.75;6.15;;;8.80;99.90;;;;;;5057080;28;20161;-74
2020/12/01 05:20:00;;;;;;;4.25;3.78;;;8.80;99.90;;;;;;5018871;28;20181;-75
2020/12/01 05:22:27;;;;;;;5.68;4.90;;;8.80;99.90;;;;;;5034971;28;20184;-75
2020/12/01 05:24:53;;;;;;;5.53;4.67;;;8.80;99.90;;;;;;5052723;28;20201;-75
2020/12/01 05:27:33;;;;;;;4.07;3.65;;;8.80;99.90;;;;;;5034696;28;20196;-75
2020/12/01 05:30:21;;;;;;;5.43;3.92;;;8.80;99.90;;;;;;5035862;28;20238;-75
2020/12/01 05:33:09;;;;;;;4.50;3.13;;;8.80;99.90;;;;;;5035171;28;20768;-74
2020/12/01 05:36:14;;;;;;;4.65;2.90;;;8.90;99.90;;;;;;5036024;28;20208;-80
2020/12/01 05:38:41;;;;;;;3.92;3.00;;;8.90;99.90;;;;;;5053214;28;20251;-80
2020/12/01 05:41:27;;;;;;;4.75;2.50;;;8.90;99.90;;;;;;5051943;28;20177;-80
2020/12/01 05:43:56;;;;;;;2.30;1.70;;;8.90;99.90;;;;;;5053223;28;20192;-80
2020/12/01 05:46:32;;;;;;;4.70;2.95;;;8.90;99.90;;;;;;5035478;28;20574;-80
2020/12/01 05:49:24;;;;;;;4.32;2.75;;;8.90;99.90;;;;;;5053068;28;20177;-80
2020/12/01 05:52:01;;;;;;;3.78;2.65;;;9.00;99.90;;;;;;5035155;28;20197;-79
2020/12/01 05:54:40;;;;;;;4.40;3.00;;;9.00;99.90;;;;;;5038329;28;20327;-79
2020/12/01 05:57:17;;;;;;;4.47;2.65;;;9.00;99.90;;;;;;5035187;28;20705;-80
2020/12/01 06:00:24;;;;;;;4.75;3.00;;;9.00;99.90;;;;;;5052860;28;20284;-79
2020/12/01 06:03:01;;;;;;;4.95;3.47;;;9.00;99.90;;;;;;4990753;28;20166;-80
2020/12/01 06:05:27;;;;;;;4.93;3.40;;;9.10;99.90;;;;;;4975357;28;20281;-80
2020/12/01 06:08:03;;;;;;;4.78;3.50;;;9.10;99.90;;;;;;5025517;28;20181;-80
2020/12/01 06:10:41;;;;;;;4.38;3.50;;;9.10;99.90;;;;;;5068055;28;20196;-79
2020/12/01 06:13:30;;;;;;;5.72;3.60;;;9.10;99.90;;;;;;5034762;28;20179;-80
2020/12/01 06:16:08;;;;;;;6.38;4.18;;;9.10;99.90;;;;;;5052580;28;20169;-79
2020/12/01 06:19:02;;;;;;;4.47;3.47;;;9.10;99.90;;;;;;5067993;28;20574;-79
2020/12/01 06:22:02;;;;;;;4.85;4.22;;;9.10;99.90;;;;;;5052493;28;20177;-79
2020/12/01 06:24:58;;;;;;;6.55;5.15;;;9.10;99.90;;;;;;5052530;28;20188;-79
2020/12/01 06:27:42;;;;;;;9.67;7.83;;;9.10;99.90;;;;;;5051710;28;20735;-80
2020/12/01 06:30:46;;;;;;;7.53;6.78;;;9.00;99.90;;;;;;5034490;28;20611;-81
2020/12/01 06:38:26;;;;;;;10.73;9.73;;;8.90;99.90;;;;;;5008094;28;20814;-81
2020/12/01 06:41:21;;;;;;;10.90;6.38;;;8.70;99.90;;;;;;5017239;28;20618;-80
2020/12/01 06:43:56;;;;;;;8.10;6.82;;;8.80;99.90;;;;;;5034765;28;20189;-80
2020/12/01 06:46:30;;;;;;;8.27;6.72;;;8.80;99.90;;;;;;5034818;28;20165;-81
2020/12/01 06:48:59;;;;;;;7.75;6.53;;;8.80;99.90;;;;;;5052413;28;20179;-82
2020/12/01 06:51:25;;;;;;;11.55;6.20;;;8.90;99.90;;;;;;5052269;28;20204;-82
2020/12/01 06:53:51;;;;;;;6.55;5.65;;;8.90;99.90;;;;;;5052584;28;20649;-82
2020/12/01 06:56:18;;;;;;;14.90;7.13;;;8.90;99.90;;;;;;5051541;28;20193;-82
2020/12/01 06:58:49;;;;;;;8.93;7.45;;;8.90;99.90;;;;;;5050898;28;20579;-82
2020/12/01 07:01:29;;;;;;;7.88;6.70;;;8.90;99.90;;;;;;5051588;28;20187;-83
2020/12/01 07:04:17;;;;;;;8.88;7.10;;;8.90;99.90;;;;;;5051682;28;20193;-81
2020/12/01 07:07:03;;;;;;;12.27;7.85;;;8.90;99.90;;;;;;5001013;28;20548;-82
2020/12/01 07:09:44;;;;;;;11.35;7.05;;;8.90;99.90;;;;;;5035664;28;20189;-81
2020/12/01 07:12:13;;;;;;;10.70;6.95;;;8.90;99.90;;;;;;5033891;28;20840;-81
2020/12/01 07:14:43;;;;;;;7.35;5.88;;;8.90;99.90;;;;;;5032449;28;20203;-83
2020/12/01 07:17:27;;;;;;;8.15;7.35;;;8.80;99.90;;;;;;5051311;28;20208;-77
2020/12/01 07:20:00;;;;;;;8.80;6.20;;;8.80;99.90;;;;;;5033411;28;20215;-78
2020/12/01 07:23:14;;;;;;;7.40;6.18;;;8.70;99.90;;;;;;5033302;28;20308;-78
2020/12/01 07:25:57;;;;;;;8.20;6.40;;;8.70;99.90;;;;;;4953758;28;20618;-78
2020/12/01 07:29:01;;;;;;;8.27;6.13;;;8.70;99.90;;;;;;4937380;28;20167;-77
2020/12/01 07:31:29;;;;;;;8.15;6.47;;;8.70;99.90;;;;;;4957363;28;20211;-77
2020/12/01 07:34:19;;;;;;;9.43;7.68;;;8.60;99.90;;;;;;4969764;28;20192;-77
2020/12/01 07:36:49;;;;;;;7.75;6.95;;;8.60;99.90;;;;;;5022164;28;20177;-77
2020/12/01 07:39:24;;;;;;;8.68;7.05;;;8.70;99.90;;;;;;5016306;28;20526;-77
2020/12/01 07:42:04;;;;;;;10.82;7.95;;;8.60;99.90;;;;;;5050478;28;20176;-78
2020/12/01 07:44:39;;;;;;;9.85;7.57;;;8.60;99.90;;;;;;5033252;28;20189;-77
2020/12/01 07:47:21;;;;;;;6.82;6.15;;;8.60;99.90;;;;;;5054578;28;20172;-79
2020/12/01 07:50:06;;;;;;;9.52;7.03;;;8.60;99.90;;;;;;5016331;28;20169;-78
2020/12/01 07:52:44;;;;;;;8.90;6.30;;;8.60;99.90;;;;;;5032945;28;20204;-79
2020/12/01 07:55:19;;;;;;;8.45;7.10;;;8.70;99.90;;;;;;5016431;28;20193;-79
2020/12/01 07:57:59;;;;;;;9.82;6.40;;;8.70;99.90;;;;;;5032352;28;20164;-79
2020/12/01 08:00:26;;;;;;;7.88;6.55;;;8.70;99.90;;;;;;5050449;28;20164;-79
2020/12/01 08:03:12;;;;;;;8.57;6.70;;;8.70;99.90;;;;;;5032371;28;20176;-79
2020/12/01 08:05:38;;;;;;;13.20;7.72;;;8.70;99.90;;;;;;5050552;28;20161;-79
2020/12/01 08:08:05;;;;;;;10.82;8.13;;;8.70;99.90;;;;;;5032282;28;20169;-78
2020/12/01 08:10:32;;;;;;;8.63;6.95;;;8.70;99.90;;;;;;5032558;28;20204;-78
2020/12/01 08:13:05;;;;;;;10.48;6.57;;;8.80;99.90;;;;;;5015896;28;20169;-79
2020/12/01 08:15:32;;;;;;;10.27;7.60;;;8.70;99.90;;;;;;5032555;28;20204;-79
2020/12/01 08:18:05;;;;;;;8.60;7.38;;;8.70;99.90;;;;;;5032489;28;20196;-78
2020/12/01 08:20:32;;;;;;;9.00;8.10;;;8.70;99.90;;;;;;5033119;28;20176;-78
2020/12/01 08:23:20;;;;;;;12.10;7.80;;;8.80;99.90;;;;;;5016810;28;20172;-78
2020/12/01 08:26:11;;;;;;;11.00;8.50;;;8.80;99.90;;;;;;5054785;28;20161;-78
2020/12/01 08:28:41;;;;;;;9.05;7.53;;;8.80;99.90;;;;;;5032318;28;20169;-79
2020/12/01 08:31:35;;;;;;;11.77;8.95;;;8.80;99.90;;;;;;5016374;28;20330;-79
2020/12/01 08:34:35;;;;;;;14.00;8.38;;;8.80;99.90;;;;;;5032667;28;20662;-78
2020/12/01 08:37:31;;;;;;;10.57;7.95;;;8.80;99.90;;;;;;5032810;28;20172;-79
2020/12/01 08:40:06;;;;;;;8.05;6.72;;;8.90;99.90;;;;;;5050666;28;20161;-79
2020/12/01 08:42:38;;;;;;;13.13;9.50;;;8.90;99.90;;;;;;5032642;28;20180;-79
2020/12/01 08:45:13;;;;;;;11.43;8.35;;;8.90;99.90;;;;;;5032713;28;20841;-79
2020/12/01 08:47:44;;;;;;;11.80;7.65;;;8.90;99.90;;;;;;5032385;28;20533;-78
2020/12/01 08:50:31;;;;;;;11.93;7.60;;;8.90;99.90;;;;;;5016312;28;20199;-79
2020/12/01 08:53:16;;;;;;;9.82;8.05;;;9.00;99.90;;;;;;5032884;28;20177;-78
2020/12/01 08:55:41;;;;;;;11.20;8.32;;;9.00;99.90;;;;;;5015967;28;20180;-79
2020/12/01 08:58:14;;;;;;;10.23;8.30;;;9.00;99.90;;;;;;5032514;28;20238;-79
2020/12/01 09:01:13;;;;;;;10.25;8.85;;;9.10;99.90;;;;;;5050703;28;20568;-79
2020/12/01 09:03:55;;;;;;;18.13;9.25;;;9.10;99.90;;;;;;5017882;28;20232;-78
2020/12/01 09:06:33;;;;;;;12.43;8.15;;;9.20;99.90;;;;;;5032610;28;20173;-79
2020/12/01 09:09:15;;;;;;;11.07;8.60;;;9.20;99.90;;;;;;5050036;28;20619;-78
2020/12/01 09:20:53;;;;;;;9.48;8.48;;;9.40;99.90;;;;;;5031781;28;20184;-77
2020/12/01 09:23:26;;;;;;;10.60;7.32;;;9.50;99.90;;;;;;5031737;28;20307;-77
2020/12/01 09:25:53;;;;;;;12.90;8.60;;;9.50;99.90;;;;;;5050104;28;20180;-77
2020/12/01 09:28:26;;;;;;;11.52;9.10;;;9.50;99.90;;;;;;5049567;28;20177;-77
2020/12/01 09:30:52;;;;;;;17.83;12.90;;;9.50;99.90;;;;;;5015562;28;20201;-78
2020/12/01 09:33:22;;;;;;;22.15;13.68;;;9.60;99.90;;;;;;5049705;28;20188;-77
2020/12/01 09:35:49;;;;;;;18.92;13.15;;;9.60;99.90;;;;;;5050110;28;20715;-77
2020/12/01 09:38:15;;;;;;;20.15;11.60;;;9.70;99.90;;;;;;5033474;28;20243;-77
2020/12/01 09:40:42;;;;;;;16.40;11.35;;;9.70;99.90;;;;;;5037843;28;20185;-77
2020/12/01 09:43:21;;;;;;;12.13;10.43;;;9.80;99.90;;;;;;5053419;28;20234;-77
2020/12/01 09:45:50;;;;;;;21.45;11.18;;;9.90;99.90;;;;;;5035793;28;20168;-77
2020/12/01 09:50:41;;;;;;;16.80;12.20;;;10.00;99.90;;;;;;5053339;28;20196;-76
2020/12/01 10:09:45;;;;;;;16.42;10.00;;;10.60;99.90;;;;;;5053146;28;20251;-77
2020/12/01 10:34:23;;;;;;;14.85;7.80;;;11.80;99.90;;;;;;5004296;28;20237;-77
2020/12/01 10:36:42;;;;;;;15.27;7.47;;;11.90;99.90;;;;;;5033530;28;20165;-77
2020/12/01 10:39:09;;;;;;;9.25;7.70;;;11.90;99.90;;;;;;5034092;28;20180;-77
2020/12/01 10:41:39;;;;;;;12.00;8.38;;;12.00;99.90;;;;;;5051983;28;20803;-75
2020/12/01 10:44:06;;;;;;;13.77;9.00;;;12.00;99.90;;;;;;5034341;28;20185;-75
2020/12/01 10:46:32;;;;;;;12.27;8.32;;;12.00;99.90;;;;;;5034377;28;20169;-77
2020/12/01 10:48:58;;;;;;;11.52;8.00;;;12.00;99.90;;;;;;5052206;28;20177;-80
2020/12/01 10:51:25;;;;;;;12.75;8.90;;;12.10;99.90;;;;;;5034436;28;20283;-81
2020/12/01 10:53:54;;;;;;;10.52;6.25;;;12.10;99.90;;;;;;5020878;28;20185;-81
2020/12/01 10:56:22;;;;;;;7.28;6.18;;;12.00;99.90;;;;;;5035288;28;20189;-81
2020/12/01 10:58:48;;;;;;;11.13;7.27;;;12.00;99.90;;;;;;5052145;28;20161;-81
2020/12/01 11:01:14;;;;;;;11.02;7.78;;;12.00;99.90;;;;;;5052492;28;20173;-82
2020/12/01 11:03:40;;;;;;;11.67;6.50;;;11.90;99.90;;;;;;5034142;28;20208;-81
2020/12/01 11:06:07;;;;;;;13.15;8.13;;;11.90;99.90;;;;;;5052659;28;20696;-82
2020/12/01 11:08:32;;;;;;;9.95;7.50;;;11.90;99.90;;;;;;5051741;28;20169;-81
2020/12/01 11:10:58;;;;;;;11.70;8.87;;;11.90;99.90;;;;;;5034149;28;20196;-82
2020/12/01 11:13:25;;;;;;;10.35;7.93;;;11.90;99.90;;;;;;5034217;28;20576;-82
2020/12/01 11:15:51;;;;;;;9.33;7.00;;;11.90;99.90;;;;;;5018011;28;20181;-83
2020/12/01 11:18:16;;;;;;;9.80;7.00;;;11.90;99.90;;;;;;5051717;28;20613;-81
2020/12/01 11:20:42;;;;;;;7.87;6.13;;;11.90;99.90;;;;;;5034104;28;20181;-81
2020/12/01 11:23:08;;;;;;;8.20;5.30;;;11.90;99.90;;;;;;5051585;28;20180;-82
2020/12/01 11:25:34;;;;;;;5.30;4.03;;;12.00;99.90;;;;;;5033777;28;20628;-82
2020/12/01 11:27:59;;;;;;;5.80;4.50;;;12.10;99.90;;;;;;5033545;28;20192;-81
2020/12/01 11:30:26;;;;;;;10.03;4.63;;;12.00;99.90;;;;;;5051771;28;20247;-82
2020/12/01 11:32:52;;;;;;;7.50;4.65;;;12.10;99.90;;;;;;5022610;28;20207;-81
2020/12/01 11:35:22;;;;;;;5.95;5.38;;;12.10;99.90;;;;;;5051567;28;20319;-77
2020/12/01 11:37:48;;;;;;;6.35;4.70;;;12.10;99.90;;;;;;5033018;28;20172;-77
2020/12/01 11:40:14;;;;;;;9.40;7.70;;;12.10;99.90;;;;;;5050711;28;20812;-77
2020/12/01 11:42:41;;;;;;;22.98;11.98;;;12.10;99.90;;;;;;5033041;28;20891;-77
2020/12/01 11:45:09;;;;;;;19.35;11.57;;;12.00;99.90;;;;;;5032927;28;20293;-77
2020/12/01 11:47:34;;;;;;;12.63;9.50;;;12.00;99.90;;;;;;5032908;28;20204;-77
2020/12/01 11:50:00;;;;;;;9.80;7.10;;;11.90;99.90;;;;;;5032943;28;20266;-77
2020/12/01 11:52:28;;;;;;;7.75;6.32;;;11.90;99.90;;;;;;5050638;28;20165;-77
2020/12/01 11:54:53;;;;;;;6.40;5.73;;;11.80;99.90;;;;;;5033129;28;20247;-77
2020/12/01 11:57:19;;;;;;;8.43;6.10;;;11.70;99.90;;;;;;5032737;28;20582;-77
2020/12/01 11:59:45;;;;;;;6.17;4.30;;;11.70;99.90;;;;;;5032686;28;20277;-77
2020/12/01 12:02:11;;;;;;;5.73;5.13;;;11.60;99.90;;;;;;5032493;28;20690;-77
2020/12/01 12:04:37;;;;;;;5.27;4.70;;;11.50;99.90;;;;;;5032920;28;20192;-77
2020/12/01 12:07:02;;;;;;;7.50;5.60;;;11.50;99.90;;;;;;5016765;28;20587;-77
2020/12/01 12:09:28;;;;;;;5.40;4.60;;;11.40;99.90;;;;;;5016346;28;20284;-77
2020/12/01 12:11:54;;;;;;;5.00;4.53;;;11.40;99.90;;;;;;5016224;28;20205;-77
2020/12/01 12:14:20;;;;;;;6.07;5.10;;;11.30;99.90;;;;;;5032697;28;20201;-77
2020/12/01 12:16:45;;;;;;;6.43;5.77;;;11.30;99.90;;;;;;5016215;28;20679;-77
2020/12/01 12:19:11;;;;;;;8.07;7.27;;;11.30;99.90;;;;;;5032225;28;20179;-77
2020/12/01 12:21:37;;;;;;;12.73;11.17;;;11.20;99.90;;;;;;5032399;28;20706;-77
2020/12/01 12:24:03;;;;;;;11.63;10.40;;;11.20;99.90;;;;;;5032407;28;20193;-77
2020/12/01 12:26:28;;;;;;;8.60;7.50;;;11.20;99.90;;;;;;5032500;28;20537;-81
2020/12/01 12:28:54;;;;;;;7.47;6.77;;;11.20;99.90;;;;;;5050192;28;20173;-81
2020/12/01 12:31:21;;;;;;;5.73;5.13;;;11.20;99.90;;;;;;5050207;28;20235;-81
2020/12/01 12:33:46;;;;;;;5.60;5.10;;;11.20;99.90;;;;;;5032543;28;20219;-81
2020/12/01 12:36:13;;;;;;;9.13;5.30;;;11.20;99.90;;;;;;5032522;28;20169;-81
2020/12/01 12:38:38;;;;;;;7.72;5.80;;;11.20;99.90;;;;;;5032285;28;20611;-81
2020/12/01 12:41:05;;;;;;;9.00;6.60;;;11.20;99.90;;;;;;5050197;28;20258;-80
2020/12/01 12:43:31;;;;;;;8.07;5.72;;;11.20;99.90;;;;;;5032486;28;20197;-80
2020/12/01 12:45:57;;;;;;;9.43;5.75;;;11.20;99.90;;;;;;5035736;28;20208;-81
2020/12/01 12:48:26;;;;;;;6.32;5.55;;;11.20;99.90;;;;;;5032278;28;20699;-80
2020/12/01 12:50:51;;;;;;;6.68;5.20;;;11.20;99.90;;;;;;5032195;28;20223;-80
2020/12/01 12:53:18;;;;;;;8.53;7.30;;;11.20;99.90;;;;;;5050083;28;20161;-81
2020/12/01 12:55:44;;;;;;;8.10;7.03;;;11.20;99.90;;;;;;5050123;28;20169;-80
2020/12/01 12:58:09;;;;;;;7.40;5.43;;;11.20;99.90;;;;;;4999329;28;20542;-80
2020/12/01 13:00:35;;;;;;;8.63;6.73;;;11.20;99.90;;;;;;5050144;28;20576;-80
2020/12/01 13:03:01;;;;;;;8.30;6.67;;;11.30;99.90;;;;;;5050152;28;20181;-81
2020/12/01 13:05:27;;;;;;;7.83;6.70;;;11.30;99.90;;;;;;5049831;28;20635;-80
2020/12/01 13:07:54;;;;;;;7.45;6.13;;;11.30;99.90;;;;;;5049668;28;20575;-80
2020/12/01 13:10:20;;;;;;;7.38;6.57;;;11.30;99.90;;;;;;5032028;28;20204;-80
2020/12/01 13:12:47;;;;;;;6.75;5.93;;;11.30;99.90;;;;;;5033451;28;20169;-80
2020/12/01 13:15:13;;;;;;;6.45;5.68;;;11.30;99.90;;;;;;5053639;28;20841;-81
2020/12/01 13:17:40;;;;;;;4.90;4.45;;;11.30;99.90;;;;;;5053559;28;20165;-82
2020/12/01 13:20:12;;;;;;;6.65;5.72;;;11.30;99.90;;;;;;5053702;28;20223;-81
2020/12/01 13:22:38;;;;;;;5.80;5.20;;;11.20;99.90;;;;;;5019702;28;20180;-81
2020/12/01 13:25:04;;;;;;;5.72;4.90;;;11.20;99.90;;;;;;5038285;28;20184;-77
2020/12/01 13:27:30;;;;;;;6.05;5.43;;;11.20;99.90;;;;;;5053510;28;20161;-82
2020/12/01 13:29:56;;;;;;;7.80;6.37;;;11.20;99.90;;;;;;5054020;28;20233;-82
2020/12/01 13:32:22;;;;;;;6.37;5.60;;;11.20;99.90;;;;;;5054152;28;20649;-82
2020/12/01 13:34:51;;;;;;;6.00;5.40;;;11.20;99.90;;;;;;5036161;28;20757;-82
2020/12/01 13:37:23;;;;;;;7.82;6.50;;;11.20;99.90;;;;;;5035788;28;20198;-83
2020/12/01 13:39:49;;;;;;;8.88;6.40;;;11.20;99.90;;;;;;5035625;28;20165;-83
2020/12/01 13:42:15;;;;;;;6.47;5.53;;;11.10;99.90;;;;;;5035424;28;20191;-83
2020/12/01 13:44:40;;;;;;;5.60;5.03;;;11.00;99.90;;;;;;5035729;28;20610;-83
2020/12/01 13:47:06;;;;;;;7.70;6.90;;;10.90;99.90;;;;;;5035765;28;20907;-85
2020/12/01 13:49:35;;;;;;;6.73;6.13;;;10.80;99.90;;;;;;5035331;28;20188;-82
2020/12/01 13:52:01;;;;;;;8.23;7.30;;;10.70;99.90;;;;;;5053514;28;21042;-82
2020/12/01 13:54:27;;;;;;;6.97;6.27;;;10.70;99.90;;;;;;5035899;28;20224;-84
2020/12/01 13:56:53;;;;;;;8.13;7.32;;;10.60;99.90;;;;;;5036015;28;20958;-84
2020/12/01 13:59:19;;;;;;;10.93;7.80;;;10.50;99.90;;;;;;5054043;28;20173;-84
2020/12/01 14:01:47;;;;;;;10.10;7.70;;;10.50;99.90;;;;;;5039013;28;20589;-83
2020/12/01 14:04:13;;;;;;;9.05;8.05;;;10.40;99.90;;;;;;5035580;28;20587;-83
2020/12/01 14:06:40;;;;;;;10.67;9.10;;;10.40;99.90;;;;;;5035438;28;20172;-83